sensor_id;sensor_type;location;lat;lon;timestamp;temperature;humidity
55016;DHT22;40919;43.236;21.590;2023-01-29T00:01:27;77.20;2227.20
55016;DHT22;40919;43.236;21.590;2023-01-29T00:03:53;76.90;2227.20
55016;DHT22;40919;43.236;21.590;2023-01-29T00:06:19;77.00;2227.20
55016;DHT22;40919;43.236;21.590;2023-01-29T00:08:44;77.00;2227.20
55016;DHT22;40919;43.236;21.590;2023-01-29T00:11:11;77.10;2227.20
55016;DHT22;40919;43.236;21.590;2023-01-29T00:13:37;77.10;2227.20
55016;DHT22;40919;43.236;21.590;2023-01-29T00:16:03;77.10;2227.20
55016;DHT22;40919;43.236;21.590;2023-01-29T00:18:30;77.10;2227.20
55016;DHT22;40919;43.236;21.590;2023-01-29T00:20:56;77.10;2227.20
55016;DHT22;40919;43.236;21.590;2023-01-29T00:23:22;77.10;2227.20
55016;DHT22;40919;43.236;21.590;2023-01-29T00:25:48;77.00;2227.20
55016;DHT22;40919;43.236;21.590;2023-01-29T00:28:14;77.10;2227.20
55016;DHT22;40919;43.236;21.590;2023-01-29T00:30:40;77.00;2227.20
55016;DHT22;40919;43.236;21.590;2023-01-29T00:33:06;77.10;2227.20
55016;DHT22;40919;43.236;21.590;2023-01-29T00:35:32;77.10;2227.20
55016;DHT22;40919;43.236;21.590;2023-01-29T00:37:58;77.10;2227.20
55016;DHT22;40919;43.236;21.590;2023-01-29T00:40:25;77.10;2227.20
55016;DHT22;40919;43.236;21.590;2023-01-29T00:42:51;77.10;2227.20
55016;DHT22;40919;43.236;21.590;2023-01-29T00:45:35;77.20;2227.20
55016;DHT22;40919;43.236;21.590;2023-01-29T00:48:02;77.10;2227.20
55016;DHT22;40919;43.236;21.590;2023-01-29T00:50:28;77.10;2227.20
55016;DHT22;40919;43.236;21.590;2023-01-29T00:52:54;52.00;2227.20
55016;DHT22;40919;43.236;21.590;2023-01-29T00:55:20;77.10;2227.20
55016;DHT22;40919;43.236;21.590;2023-01-29T00:57:46;77.50;2227.20
55016;DHT22;40919;43.236;21.590;2023-01-29T01:00:14;77.50;2227.20
55016;DHT22;40919;43.236;21.590;2023-01-29T01:02:41;77.10;2227.20
55016;DHT22;40919;43.236;21.590;2023-01-29T01:05:26;77.10;2227.20
55016;DHT22;40919;43.236;21.590;2023-01-29T01:07:55;77.00;2227.20
55016;DHT22;40919;43.236;21.590;2023-01-29T01:10:31;77.10;2227.20
55016;DHT22;40919;43.236;21.590;2023-01-29T01:12:59;77.10;2227.20
55016;DHT22;40919;43.236;21.590;2023-01-29T01:15:35;77.10;2227.20
55016;DHT22;40919;43.236;21.590;2023-01-29T01:18:02;77.10;2227.20
55016;DHT22;40919;43.236;21.590;2023-01-29T01:20:29;77.00;2227.20
55016;DHT22;40919;43.236;21.590;2023-01-29T01:22:56;77.00;2227.20
55016;DHT22;40919;43.236;21.590;2023-01-29T01:25:25;77.10;2227.20
55016;DHT22;40919;43.236;21.590;2023-01-29T01:27:53;77.10;2227.20
55016;DHT22;40919;43.236;21.590;2023-01-29T01:30:19;77.10;2227.20
55016;DHT22;40919;43.236;21.590;2023-01-29T01:32:45;77.00;2227.20
55016;DHT22;40919;43.236;21.590;2023-01-29T01:35:11;77.00;2227.20
55016;DHT22;40919;43.236;21.590;2023-01-29T01:37:39;77.00;2227.20
55016;DHT22;40919;43.236;21.590;2023-01-29T01:40:07;77.00;2227.20
55016;DHT22;40919;43.236;21.590;2023-01-29T01:42:38;77.00;2227.20
55016;DHT22;40919;43.236;21.590;2023-01-29T01:45:07;77.00;2227.20
55016;DHT22;40919;43.236;21.590;2023-01-29T01:47:41;77.00;2227.20
55016;DHT22;40919;43.236;21.590;2023-01-29T01:50:52;77.00;2227.20
55016;DHT22;40919;43.236;21.590;2023-01-29T01:53:23;77.00;2227.20
55016;DHT22;40919;43.236;21.590;2023-01-29T01:55:57;77.00;2227.20
55016;DHT22;40919;43.236;21.590;2023-01-29T01:58:29;77.00;2227.20
55016;DHT22;40919;43.236;21.590;2023-01-29T02:00:57;77.10;2227.20
55016;DHT22;40919;43.236;21.590;2023-01-29T02:03:23;77.10;2227.20
55016;DHT22;40919;43.236;21.590;2023-01-29T02:06:10;77.10;2227.20
55016;DHT22;40919;43.236;21.590;2023-01-29T02:09:38;77.10;2227.20
55016;DHT22;40919;43.236;21.590;2023-01-29T02:12:12;77.00;2227.20
55016;DHT22;40919;43.236;21.590;2023-01-29T02:14:41;77.10;2227.20
55016;DHT22;40919;43.236;21.590;2023-01-29T02:17:11;77.10;2227.20
55016;DHT22;40919;43.236;21.590;2023-01-29T02:30:37;77.10;2227.20
55016;DHT22;40919;43.236;21.590;2023-01-29T02:36:12;77.10;2227.20
55016;DHT22;40919;43.236;21.590;2023-01-29T02:42:35;77.10;2227.20
55016;DHT22;40919;43.236;21.590;2023-01-29T02:45:28;77.00;2227.20
55016;DHT22;40919;43.236;21.590;2023-01-29T02:47:59;77.10;2227.20
55016;DHT22;40919;43.236;21.590;2023-01-29T02:53:41;77.00;2227.20
55016;DHT22;40919;43.236;21.590;2023-01-29T02:56:38;77.10;2227.20
55016;DHT22;40919;43.236;21.590;2023-01-29T02:59:12;77.00;2227.20
55016;DHT22;40919;43.236;21.590;2023-01-29T03:01:52;77.00;2227.20
55016;DHT22;40919;43.236;21.590;2023-01-29T03:04:25;76.90;2227.20
55016;DHT22;40919;43.236;21.590;2023-01-29T03:07:01;77.00;2227.20
55016;DHT22;40919;43.236;21.590;2023-01-29T03:09:35;77.00;2227.20
55016;DHT22;40919;43.236;21.590;2023-01-29T03:12:11;77.00;2227.20
55016;DHT22;40919;43.236;21.590;2023-01-29T03:14:54;77.00;2227.20
55016;DHT22;40919;43.236;21.590;2023-01-29T03:17:43;77.00;2227.20
55016;DHT22;40919;43.236;21.590;2023-01-29T03:20:16;77.00;2227.20
55016;DHT22;40919;43.236;21.590;2023-01-29T03:22:48;77.00;2227.20
55016;DHT22;40919;43.236;21.590;2023-01-29T03:25:17;77.00;2227.20
55016;DHT22;40919;43.236;21.590;2023-01-29T03:28:04;77.00;2227.20
55016;DHT22;40919;43.236;21.590;2023-01-29T03:30:55;77.00;2227.20
55016;DHT22;40919;43.236;21.590;2023-01-29T03:33:47;76.90;2227.20
55016;DHT22;40919;43.236;21.590;2023-01-29T03:36:26;77.00;2227.20
55016;DHT22;40919;43.236;21.590;2023-01-29T03:39:05;76.90;2227.20
55016;DHT22;40919;43.236;21.590;2023-01-29T03:41:38;77.00;2227.20
55016;DHT22;40919;43.236;21.590;2023-01-29T03:44:09;77.00;2227.20
55016;DHT22;40919;43.236;21.590;2023-01-29T03:46:51;77.00;2227.20
55016;DHT22;40919;43.236;21.590;2023-01-29T03:52:08;77.00;2227.20
55016;DHT22;40919;43.236;21.590;2023-01-29T03:57:38;76.90;2227.20
55016;DHT22;40919;43.236;21.590;2023-01-29T04:00:15;77.00;2227.20
55016;DHT22;40919;43.236;21.590;2023-01-29T04:05:22;76.90;2227.20
55016;DHT22;40919;43.236;21.590;2023-01-29T04:07:53;76.90;2227.20
55016;DHT22;40919;43.236;21.590;2023-01-29T04:10:25;77.00;2227.20
55016;DHT22;40919;43.236;21.590;2023-01-29T04:12:57;77.00;2227.20
55016;DHT22;40919;43.236;21.590;2023-01-29T04:15:24;77.10;2227.20
55016;DHT22;40919;43.236;21.590;2023-01-29T04:17:52;77.10;2227.20
55016;DHT22;40919;43.236;21.590;2023-01-29T04:20:20;77.00;2227.20
55016;DHT22;40919;43.236;21.590;2023-01-29T04:22:47;77.00;2227.20
55016;DHT22;40919;43.236;21.590;2023-01-29T04:25:20;77.10;2227.20
55016;DHT22;40919;43.236;21.590;2023-01-29T04:43:53;77.00;2227.20
55016;DHT22;40919;43.236;21.590;2023-01-29T04:46:29;77.00;2227.20
55016;DHT22;40919;43.236;21.590;2023-01-29T04:49:34;77.00;2227.20
55016;DHT22;40919;43.236;21.590;2023-01-29T04:52:16;77.00;2227.20
55016;DHT22;40919;43.236;21.590;2023-01-29T04:54:58;77.00;2227.20
55016;DHT22;40919;43.236;21.590;2023-01-29T05:00:07;77.00;2227.20
55016;DHT22;40919;43.236;21.590;2023-01-29T05:02:37;77.00;2227.20
55016;DHT22;40919;43.236;21.590;2023-01-29T05:05:04;77.00;2227.20
55016;DHT22;40919;43.236;21.590;2023-01-29T05:07:34;77.00;2227.20
55016;DHT22;40919;43.236;21.590;2023-01-29T05:10:00;77.00;2227.20
55016;DHT22;40919;43.236;21.590;2023-01-29T05:12:28;77.00;2227.20
55016;DHT22;40919;43.236;21.590;2023-01-29T05:14:59;77.10;2227.20
55016;DHT22;40919;43.236;21.590;2023-01-29T05:17:25;77.00;2227.20
55016;DHT22;40919;43.236;21.590;2023-01-29T05:19:52;77.00;2227.20
55016;DHT22;40919;43.236;21.590;2023-01-29T05:22:19;77.00;2227.20
55016;DHT22;40919;43.236;21.590;2023-01-29T05:24:47;77.00;2227.20
55016;DHT22;40919;43.236;21.590;2023-01-29T05:27:22;77.00;2227.20
55016;DHT22;40919;43.236;21.590;2023-01-29T05:30:08;76.90;2227.20
55016;DHT22;40919;43.236;21.590;2023-01-29T05:32:34;76.90;2227.20
55016;DHT22;40919;43.236;21.590;2023-01-29T05:35:00;76.90;2227.20
55016;DHT22;40919;43.236;21.590;2023-01-29T05:37:26;76.90;2227.20
55016;DHT22;40919;43.236;21.590;2023-01-29T05:39:52;77.00;2227.20
55016;DHT22;40919;43.236;21.590;2023-01-29T05:42:17;77.00;2227.20
55016;DHT22;40919;43.236;21.590;2023-01-29T05:44:43;77.00;2227.20
55016;DHT22;40919;43.236;21.590;2023-01-29T05:47:09;77.00;2227.20
55016;DHT22;40919;43.236;21.590;2023-01-29T05:49:34;77.00;2227.20
55016;DHT22;40919;43.236;21.590;2023-01-29T05:52:00;77.00;2227.20
55016;DHT22;40919;43.236;21.590;2023-01-29T05:54:26;77.10;2227.20
55016;DHT22;40919;43.236;21.590;2023-01-29T05:56:51;77.00;2227.20
55016;DHT22;40919;43.236;21.590;2023-01-29T05:59:17;77.10;2227.20
55016;DHT22;40919;43.236;21.590;2023-01-29T06:01:43;77.10;2227.20
55016;DHT22;40919;43.236;21.590;2023-01-29T06:04:08;77.10;2227.20
55016;DHT22;40919;43.236;21.590;2023-01-29T06:06:34;77.00;2227.20
55016;DHT22;40919;43.236;21.590;2023-01-29T06:09:00;77.10;2227.20
55016;DHT22;40919;43.236;21.590;2023-01-29T06:11:26;77.10;2227.20
55016;DHT22;40919;43.236;21.590;2023-01-29T06:13:51;77.10;2227.20
55016;DHT22;40919;43.236;21.590;2023-01-29T06:16:17;77.10;2227.20
55016;DHT22;40919;43.236;21.590;2023-01-29T06:18:43;77.10;2227.20
55016;DHT22;40919;43.236;21.590;2023-01-29T06:21:12;77.10;2227.20
55016;DHT22;40919;43.236;21.590;2023-01-29T06:23:38;77.20;2227.20
55016;DHT22;40919;43.236;21.590;2023-01-29T06:26:07;77.20;2227.20
55016;DHT22;40919;43.236;21.590;2023-01-29T06:28:33;77.20;2227.20
55016;DHT22;40919;43.236;21.590;2023-01-29T06:31:00;77.20;2227.20
55016;DHT22;40919;43.236;21.590;2023-01-29T06:33:26;77.10;2227.20
55016;DHT22;40919;43.236;21.590;2023-01-29T06:36:00;77.20;2227.20
55016;DHT22;40919;43.236;21.590;2023-01-29T06:38:26;77.20;2227.20
55016;DHT22;40919;43.236;21.590;2023-01-29T06:40:53;77.20;2227.20
55016;DHT22;40919;43.236;21.590;2023-01-29T06:43:19;77.20;2227.20
55016;DHT22;40919;43.236;21.590;2023-01-29T06:45:56;77.20;2227.20
55016;DHT22;40919;43.236;21.590;2023-01-29T06:48:23;77.10;2227.20
55016;DHT22;40919;43.236;21.590;2023-01-29T06:50:50;77.00;2227.20
55016;DHT22;40919;43.236;21.590;2023-01-29T06:53:16;77.00;2227.20
55016;DHT22;40919;43.236;21.590;2023-01-29T06:55:50;77.00;2227.20
55016;DHT22;40919;43.236;21.590;2023-01-29T06:58:17;77.00;2227.20
55016;DHT22;40919;43.236;21.590;2023-01-29T07:00:43;77.00;2227.20
55016;DHT22;40919;43.236;21.590;2023-01-29T07:03:09;77.00;2227.20
55016;DHT22;40919;43.236;21.590;2023-01-29T07:05:35;77.00;2227.20
55016;DHT22;40919;43.236;21.590;2023-01-29T07:08:01;76.90;2227.20
55016;DHT22;40919;43.236;21.590;2023-01-29T07:10:27;76.90;2227.20
55016;DHT22;40919;43.236;21.590;2023-01-29T07:12:53;77.00;2227.20
55016;DHT22;40919;43.236;21.590;2023-01-29T07:15:19;76.90;2227.20
55016;DHT22;40919;43.236;21.590;2023-01-29T07:18:15;77.00;2227.20
55016;DHT22;40919;43.236;21.590;2023-01-29T07:20:41;77.00;2227.20
55016;DHT22;40919;43.236;21.590;2023-01-29T07:23:13;77.00;2227.20
55016;DHT22;40919;43.236;21.590;2023-01-29T07:25:40;77.00;2227.20
55016;DHT22;40919;43.236;21.590;2023-01-29T07:28:06;52.10;2227.20
55016;DHT22;40919;43.236;21.590;2023-01-29T07:30:32;77.00;2227.20
55016;DHT22;40919;43.236;21.590;2023-01-29T07:33:06;76.90;2227.20
55016;DHT22;40919;43.236;21.590;2023-01-29T07:35:40;77.00;2227.20
55016;DHT22;40919;43.236;21.590;2023-01-29T07:38:07;77.00;2227.20
55016;DHT22;40919;43.236;21.590;2023-01-29T07:40:33;77.00;2227.20
55016;DHT22;40919;43.236;21.590;2023-01-29T07:43:04;77.00;2227.20
55016;DHT22;40919;43.236;21.590;2023-01-29T07:45:32;77.00;2227.20
55016;DHT22;40919;43.236;21.590;2023-01-29T07:47:58;77.00;2227.20
55016;DHT22;40919;43.236;21.590;2023-01-29T07:50:24;77.00;2227.20
55016;DHT22;40919;43.236;21.590;2023-01-29T07:52:52;76.90;2227.20
55016;DHT22;40919;43.236;21.590;2023-01-29T07:55:18;77.00;2227.20
55016;DHT22;40919;43.236;21.590;2023-01-29T07:57:45;77.00;2227.20
55016;DHT22;40919;43.236;21.590;2023-01-29T08:00:12;77.00;2227.20
55016;DHT22;40919;43.236;21.590;2023-01-29T08:02:39;77.00;2227.20
55016;DHT22;40919;43.236;21.590;2023-01-29T08:05:06;77.00;2227.20
55016;DHT22;40919;43.236;21.590;2023-01-29T08:07:32;77.10;2227.20
55016;DHT22;40919;43.236;21.590;2023-01-29T08:09:57;76.90;2227.20
55016;DHT22;40919;43.236;21.590;2023-01-29T08:12:23;77.00;2227.20
55016;DHT22;40919;43.236;21.590;2023-01-29T08:14:49;77.00;2227.20
55016;DHT22;40919;43.236;21.590;2023-01-29T08:17:15;77.00;2227.20
55016;DHT22;40919;43.236;21.590;2023-01-29T08:19:40;77.10;2227.20
55016;DHT22;40919;43.236;21.590;2023-01-29T08:22:06;77.10;2227.20
55016;DHT22;40919;43.236;21.590;2023-01-29T08:24:32;77.10;2227.20
55016;DHT22;40919;43.236;21.590;2023-01-29T08:26:57;77.10;2227.20
55016;DHT22;40919;43.236;21.590;2023-01-29T08:29:23;77.20;2227.20
55016;DHT22;40919;43.236;21.590;2023-01-29T08:31:49;77.20;2227.20
55016;DHT22;40919;43.236;21.590;2023-01-29T08:34:15;77.20;2227.20
55016;DHT22;40919;43.236;21.590;2023-01-29T08:36:41;77.20;2227.20
55016;DHT22;40919;43.236;21.590;2023-01-29T08:39:06;77.20;2227.20
55016;DHT22;40919;43.236;21.590;2023-01-29T08:41:32;77.20;2227.20
55016;DHT22;40919;43.236;21.590;2023-01-29T08:43:58;77.20;2227.20
55016;DHT22;40919;43.236;21.590;2023-01-29T08:46:25;77.20;2227.20
55016;DHT22;40919;43.236;21.590;2023-01-29T08:48:51;77.20;2227.20
55016;DHT22;40919;43.236;21.590;2023-01-29T08:51:17;77.20;2227.20
55016;DHT22;40919;43.236;21.590;2023-01-29T08:53:43;77.20;2227.20
55016;DHT22;40919;43.236;21.590;2023-01-29T08:56:08;77.20;2227.20
55016;DHT22;40919;43.236;21.590;2023-01-29T08:58:34;77.20;2227.20
55016;DHT22;40919;43.236;21.590;2023-01-29T09:01:11;77.20;2227.20
55016;DHT22;40919;43.236;21.590;2023-01-29T09:03:37;77.20;2227.20
55016;DHT22;40919;43.236;21.590;2023-01-29T09:06:12;77.20;2227.20
55016;DHT22;40919;43.236;21.590;2023-01-29T09:08:38;77.20;2227.20
55016;DHT22;40919;43.236;21.590;2023-01-29T09:11:04;77.20;2227.20
55016;DHT22;40919;43.236;21.590;2023-01-29T09:13:30;77.20;2227.20
55016;DHT22;40919;43.236;21.590;2023-01-29T09:15:59;77.20;2227.20
55016;DHT22;40919;43.236;21.590;2023-01-29T09:18:25;77.00;2227.20
55016;DHT22;40919;43.236;21.590;2023-01-29T09:20:52;77.20;2227.20
55016;DHT22;40919;43.236;21.590;2023-01-29T09:23:18;77.20;2227.20
55016;DHT22;40919;43.236;21.590;2023-01-29T09:25:44;77.10;2227.20
55016;DHT22;40919;43.236;21.590;2023-01-29T09:28:11;77.20;2227.20
55016;DHT22;40919;43.236;21.590;2023-01-29T09:30:37;77.20;2227.20
55016;DHT22;40919;43.236;21.590;2023-01-29T09:33:04;77.20;2227.20
55016;DHT22;40919;43.236;21.590;2023-01-29T09:35:30;77.20;2227.20
55016;DHT22;40919;43.236;21.590;2023-01-29T09:37:56;77.30;2227.20
55016;DHT22;40919;43.236;21.590;2023-01-29T09:43:22;77.30;2227.20
55016;DHT22;40919;43.236;21.590;2023-01-29T09:45:59;77.30;2227.20
55016;DHT22;40919;43.236;21.590;2023-01-29T09:48:29;77.30;2227.20
55016;DHT22;40919;43.236;21.590;2023-01-29T09:50:58;77.30;2227.20
55016;DHT22;40919;43.236;21.590;2023-01-29T09:53:52;77.30;2227.20
55016;DHT22;40919;43.236;21.590;2023-01-29T09:56:21;77.30;2227.20
55016;DHT22;40919;43.236;21.590;2023-01-29T09:58:56;77.40;2227.20
55016;DHT22;40919;43.236;21.590;2023-01-29T10:07:25;77.40;2227.20
55016;DHT22;40919;43.236;21.590;2023-01-29T10:12:50;77.40;2227.20
55016;DHT22;40919;43.236;21.590;2023-01-29T10:15:58;77.40;2227.20
55016;DHT22;40919;43.236;21.590;2023-01-29T10:24:23;77.40;2227.20
55016;DHT22;40919;43.236;21.590;2023-01-29T10:26:51;77.40;2227.20
55016;DHT22;40919;43.236;21.590;2023-01-29T10:29:20;77.50;2227.20
55016;DHT22;40919;43.236;21.590;2023-01-29T10:31:54;77.50;2227.20
55016;DHT22;40919;43.236;21.590;2023-01-29T10:34:46;77.50;2227.20
55016;DHT22;40919;43.236;21.590;2023-01-29T10:37:21;77.50;2227.20
55016;DHT22;40919;43.236;21.590;2023-01-29T10:39:49;77.60;2227.20
55016;DHT22;40919;43.236;21.590;2023-01-29T10:42:20;77.50;2227.20
55016;DHT22;40919;43.236;21.590;2023-01-29T10:56:02;77.60;2227.20
55016;DHT22;40919;43.236;21.590;2023-01-29T10:58:42;77.60;2227.20
55016;DHT22;40919;43.236;21.590;2023-01-29T11:01:11;77.60;2227.20
55016;DHT22;40919;43.236;21.590;2023-01-29T11:03:37;77.60;2227.20
55016;DHT22;40919;43.236;21.590;2023-01-29T11:06:29;77.60;2227.20
55016;DHT22;40919;43.236;21.590;2023-01-29T11:09:11;77.70;2227.20
55016;DHT22;40919;43.236;21.590;2023-01-29T11:16:54;77.60;2227.20
55016;DHT22;40919;43.236;21.590;2023-01-29T11:19:41;77.70;2227.20
55016;DHT22;40919;43.236;21.590;2023-01-29T11:22:19;77.70;2227.20
55016;DHT22;40919;43.236;21.590;2023-01-29T11:24:46;102.40;2227.20
55016;DHT22;40919;43.236;21.590;2023-01-29T11:27:22;77.70;2227.20
55016;DHT22;40919;43.236;21.590;2023-01-29T11:29:51;102.40;2227.20
55016;DHT22;40919;43.236;21.590;2023-01-29T11:35:03;102.40;2227.20
55016;DHT22;40919;43.236;21.590;2023-01-29T11:37:33;102.40;2227.20
55016;DHT22;40919;43.236;21.590;2023-01-29T11:39:59;77.70;2227.20
55016;DHT22;40919;43.236;21.590;2023-01-29T11:42:29;77.70;2227.20
55016;DHT22;40919;43.236;21.590;2023-01-29T11:44:55;77.70;2227.20
55016;DHT22;40919;43.236;21.590;2023-01-29T11:47:27;77.60;2227.20
55016;DHT22;40919;43.236;21.590;2023-01-29T11:49:56;77.70;2227.20
55016;DHT22;40919;43.236;21.590;2023-01-29T11:52:34;77.60;2227.20
55016;DHT22;40919;43.236;21.590;2023-01-29T11:55:25;77.60;2227.20
55016;DHT22;40919;43.236;21.590;2023-01-29T12:00:26;77.50;2227.20
55016;DHT22;40919;43.236;21.590;2023-01-29T12:03:02;77.60;2227.20
55016;DHT22;40919;43.236;21.590;2023-01-29T12:05:29;77.60;2227.20
55016;DHT22;40919;43.236;21.590;2023-01-29T12:07:59;77.60;2227.20
55016;DHT22;40919;43.236;21.590;2023-01-29T12:10:37;77.60;2227.20
55016;DHT22;40919;43.236;21.590;2023-01-29T12:15:38;77.70;2227.20
55016;DHT22;40919;43.236;21.590;2023-01-29T12:18:11;77.70;2227.20
55016;DHT22;40919;43.236;21.590;2023-01-29T12:20:45;77.70;2227.20
55016;DHT22;40919;43.236;21.590;2023-01-29T12:23:35;77.70;2227.20
55016;DHT22;40919;43.236;21.590;2023-01-29T12:26:16;77.60;2227.20
55016;DHT22;40919;43.236;21.590;2023-01-29T12:34:22;77.50;2227.20
55016;DHT22;40919;43.236;21.590;2023-01-29T12:37:11;77.60;2227.20
55016;DHT22;40919;43.236;21.590;2023-01-29T12:39:38;77.60;2227.20
55016;DHT22;40919;43.236;21.590;2023-01-29T12:42:24;77.60;2227.20
55016;DHT22;40919;43.236;21.590;2023-01-29T12:45:02;77.60;2227.20
55016;DHT22;40919;43.236;21.590;2023-01-29T12:47:45;77.60;2227.20
55016;DHT22;40919;43.236;21.590;2023-01-29T12:50:19;77.50;2227.20
55016;DHT22;40919;43.236;21.590;2023-01-29T12:55:19;77.50;2227.20
55016;DHT22;40919;43.236;21.590;2023-01-29T12:58:03;77.50;2227.20
55016;DHT22;40919;43.236;21.590;2023-01-29T13:00:36;77.50;2227.20
55016;DHT22;40919;43.236;21.590;2023-01-29T13:03:13;77.50;2227.20
55016;DHT22;40919;43.236;21.590;2023-01-29T13:05:53;77.50;2227.20
55016;DHT22;40919;43.236;21.590;2023-01-29T13:08:23;77.50;2227.20
55016;DHT22;40919;43.236;21.590;2023-01-29T13:10:52;77.50;2227.20
55016;DHT22;40919;43.236;21.590;2023-01-29T13:13:35;77.60;2227.20
55016;DHT22;40919;43.236;21.590;2023-01-29T13:16:05;102.40;2227.20
55016;DHT22;40919;43.236;21.590;2023-01-29T13:18:46;102.40;2227.20
55016;DHT22;40919;43.236;21.590;2023-01-29T13:21:21;102.40;2227.20
55016;DHT22;40919;43.236;21.590;2023-01-29T13:23:53;77.70;2227.20
55016;DHT22;40919;43.236;21.590;2023-01-29T13:26:22;77.70;2227.20
55016;DHT22;40919;43.236;21.590;2023-01-29T13:28:50;77.70;2227.20
55016;DHT22;40919;43.236;21.590;2023-01-29T13:31:32;77.70;2227.20
55016;DHT22;40919;43.236;21.590;2023-01-29T13:36:43;77.60;2227.20
55016;DHT22;40919;43.236;21.590;2023-01-29T13:39:32;77.70;2227.20
55016;DHT22;40919;43.236;21.590;2023-01-29T13:42:00;77.70;2227.20
55016;DHT22;40919;43.236;21.590;2023-01-29T13:44:32;77.70;2227.20
55016;DHT22;40919;43.236;21.590;2023-01-29T13:47:03;102.40;2227.20
55016;DHT22;40919;43.236;21.590;2023-01-29T13:52:20;102.40;2227.20
55016;DHT22;40919;43.236;21.590;2023-01-29T13:54:52;102.40;2227.20
55016;DHT22;40919;43.236;21.590;2023-01-29T13:57:35;102.40;2227.20
55016;DHT22;40919;43.236;21.590;2023-01-29T14:00:02;102.40;2227.20
55016;DHT22;40919;43.236;21.590;2023-01-29T14:02:29;102.40;2227.20
55016;DHT22;40919;43.236;21.590;2023-01-29T14:10:42;102.40;2227.20
55016;DHT22;40919;43.236;21.590;2023-01-29T14:18:31;102.40;2227.20
55016;DHT22;40919;43.236;21.590;2023-01-29T14:21:06;77.70;2227.20
55016;DHT22;40919;43.236;21.590;2023-01-29T14:23:47;77.70;2227.20
55016;DHT22;40919;43.236;21.590;2023-01-29T14:26:39;77.60;2227.20
55016;DHT22;40919;43.236;21.590;2023-01-29T14:29:21;77.60;2227.20
55016;DHT22;40919;43.236;21.590;2023-01-29T14:31:54;77.70;2227.20
55016;DHT22;40919;43.236;21.590;2023-01-29T14:34:29;77.60;2227.20
55016;DHT22;40919;43.236;21.590;2023-01-29T14:36:59;77.50;2227.20
55016;DHT22;40919;43.236;21.590;2023-01-29T14:39:41;77.50;2227.20
55016;DHT22;40919;43.236;21.590;2023-01-29T14:42:26;77.50;2227.20
55016;DHT22;40919;43.236;21.590;2023-01-29T14:58:26;77.60;2227.20
55016;DHT22;40919;43.236;21.590;2023-01-29T15:00:54;77.60;2227.20
55016;DHT22;40919;43.236;21.590;2023-01-29T15:03:51;77.60;2227.20
55016;DHT22;40919;43.236;21.590;2023-01-29T15:06:26;77.60;2227.20
55016;DHT22;40919;43.236;21.590;2023-01-29T15:08:59;77.50;2227.20
55016;DHT22;40919;43.236;21.590;2023-01-29T15:11:34;77.60;2227.20
55016;DHT22;40919;43.236;21.590;2023-01-29T15:14:13;77.60;2227.20
55016;DHT22;40919;43.236;21.590;2023-01-29T15:20:18;77.50;2227.20
55016;DHT22;40919;43.236;21.590;2023-01-29T15:22:18;77.40;2227.20
55016;DHT22;40919;43.236;21.590;2023-01-29T15:24:45;77.50;2227.20
55016;DHT22;40919;43.236;21.590;2023-01-29T15:27:17;77.40;2227.20
55016;DHT22;40919;43.236;21.590;2023-01-29T15:29:47;77.50;2227.20
55016;DHT22;40919;43.236;21.590;2023-01-29T15:32:32;77.50;2227.20
55016;DHT22;40919;43.236;21.590;2023-01-29T15:35:06;77.50;2227.20
55016;DHT22;40919;43.236;21.590;2023-01-29T15:37:33;77.50;2227.20
55016;DHT22;40919;43.236;21.590;2023-01-29T15:40:00;77.50;2227.20
55016;DHT22;40919;43.236;21.590;2023-01-29T15:42:44;77.60;2227.20
55016;DHT22;40919;43.236;21.590;2023-01-29T15:45:41;77.50;2227.20
55016;DHT22;40919;43.236;21.590;2023-01-29T15:48:13;77.50;2227.20
55016;DHT22;40919;43.236;21.590;2023-01-29T15:50:43;77.50;2227.20
55016;DHT22;40919;43.236;21.590;2023-01-29T15:53:14;77.50;2227.20
55016;DHT22;40919;43.236;21.590;2023-01-29T15:55:42;77.50;2227.20
55016;DHT22;40919;43.236;21.590;2023-01-29T15:58:17;77.60;2227.20
55016;DHT22;40919;43.236;21.590;2023-01-29T16:00:52;77.60;2227.20
55016;DHT22;40919;43.236;21.590;2023-01-29T16:03:23;77.60;2227.20
55016;DHT22;40919;43.236;21.590;2023-01-29T16:05:51;77.60;2227.20
55016;DHT22;40919;43.236;21.590;2023-01-29T16:08:17;77.60;2227.20
55016;DHT22;40919;43.236;21.590;2023-01-29T16:10:54;77.60;2227.20
55016;DHT22;40919;43.236;21.590;2023-01-29T16:13:29;77.70;2227.20
55016;DHT22;40919;43.236;21.590;2023-01-29T16:16:02;77.70;2227.20
55016;DHT22;40919;43.236;21.590;2023-01-29T16:20:58;77.60;2227.20
55016;DHT22;40919;43.236;21.590;2023-01-29T16:23:27;77.70;2227.20
55016;DHT22;40919;43.236;21.590;2023-01-29T16:26:04;77.60;2227.20
55016;DHT22;40919;43.236;21.590;2023-01-29T16:28:30;77.60;2227.20
55016;DHT22;40919;43.236;21.590;2023-01-29T16:30:57;77.60;2227.20
55016;DHT22;40919;43.236;21.590;2023-01-29T16:33:34;77.70;2227.20
55016;DHT22;40919;43.236;21.590;2023-01-29T16:36:02;77.70;2227.20
55016;DHT22;40919;43.236;21.590;2023-01-29T16:38:35;77.70;2227.20
55016;DHT22;40919;43.236;21.590;2023-01-29T16:41:05;77.70;2227.20
55016;DHT22;40919;43.236;21.590;2023-01-29T16:46:22;77.60;2227.20
55016;DHT22;40919;43.236;21.590;2023-01-29T16:48:49;77.60;2227.20
55016;DHT22;40919;43.236;21.590;2023-01-29T16:51:27;77.60;2227.20
55016;DHT22;40919;43.236;21.590;2023-01-29T16:54:10;77.60;2227.20
55016;DHT22;40919;43.236;21.590;2023-01-29T16:56:37;77.60;2227.20
55016;DHT22;40919;43.236;21.590;2023-01-29T16:59:04;77.50;2227.20
55016;DHT22;40919;43.236;21.590;2023-01-29T17:01:32;77.40;2227.20
55016;DHT22;40919;43.236;21.590;2023-01-29T17:04:09;77.40;2227.20
55016;DHT22;40919;43.236;21.590;2023-01-29T17:06:39;77.40;2227.20
55016;DHT22;40919;43.236;21.590;2023-01-29T17:09:06;77.40;2227.20
55016;DHT22;40919;43.236;21.590;2023-01-29T17:11:36;77.40;2227.20
55016;DHT22;40919;43.236;21.590;2023-01-29T17:14:05;77.40;2227.20
55016;DHT22;40919;43.236;21.590;2023-01-29T17:16:33;77.40;2227.20
55016;DHT22;40919;43.236;21.590;2023-01-29T17:19:00;77.30;2227.20
55016;DHT22;40919;43.236;21.590;2023-01-29T17:21:27;77.10;2227.20
55016;DHT22;40919;43.236;21.590;2023-01-29T17:23:54;77.40;2227.20
55016;DHT22;40919;43.236;21.590;2023-01-29T17:26:20;77.40;2227.20
55016;DHT22;40919;43.236;21.590;2023-01-29T17:28:48;77.30;2227.20
55016;DHT22;40919;43.236;21.590;2023-01-29T17:31:14;77.30;2227.20